KGSB

Seymour Johnson Air Force Base

Airport
ICAO code
KGSB
Summary
ICAO Region
NAM
ICAO Territory
Location

Goldsboro, North Carolina,

Elevation
109 ft
Coordinates
35° 20' 24" N , 77° 57' 42" W
KCC
Metar
KGSB 190455Z 10004KT 10SM CLR 16/13 A2999 RMK AO2A SLP158 T01640131 403080163

Description

Seymour Johnson Air Force Base is a United States Air Force installation located 10 km southeast of the central business district of Goldsboro, North Carolina.

Climatology

Humid “subtropical” climate (Köppen climate classification Cfa) - characterized by hot, humid summers and cool winters. Significant amounts of precipitation occur in all seasons in most areas. Winter rainfall (and sometimes snowfall) is associated with large storms that the westerlies steer from west to east. Most summer rainfall occurs during thunderstorms and occasional tropical storms (hurricanes).

Airport map

Aerial View

SKYbrary Partners:

Safety knowledge contributed by: